Time;durP1;ratioP1;P1;durP2;ratioP2;P2;SDS_P1;SDS_P2;PMS_P1;PMS_P2;Temp;Humidity;BMP_temperature;BMP_pressure;BME280_temperature;BME280_humidity;BME280_pressure;Samples;Min_cycle;Max_cycle;Signal;HPM_P1;HPM_P2
2022/03/23 00:01:46;;;;;;;20.52;9.73;;;11.00;99.60;;;;;;5035861;28;20238;-84
2022/03/23 00:04:11;;;;;;;12.73;9.57;;;11.00;99.50;;;;;;5035426;28;20176;-82
2022/03/23 00:06:38;;;;;;;19.50;9.23;;;11.10;99.70;;;;;;5017298;28;20571;-83
2022/03/23 00:09:04;;;;;;;25.15;10.48;;;11.10;99.70;;;;;;5035566;28;20282;-80
2022/03/23 00:11:30;;;;;;;23.13;11.23;;;10.90;99.90;;;;;;5035714;28;20523;-81
2022/03/23 00:13:56;;;;;;;17.92;11.05;;;10.90;99.90;;;;;;5035381;28;20179;-84
2022/03/23 00:16:21;;;;;;;18.13;10.13;;;10.90;99.90;;;;;;5034786;28;20202;-83
2022/03/23 00:18:47;;;;;;;18.95;9.52;;;11.00;99.90;;;;;;5035431;28;20175;-84
2022/03/23 00:21:13;;;;;;;22.48;10.55;;;11.00;99.90;;;;;;5035187;28;20175;-83
2022/03/23 00:23:39;;;;;;;21.92;9.60;;;10.80;99.90;;;;;;5035396;28;20222;-83
2022/03/23 00:26:05;;;;;;;23.98;10.60;;;10.50;99.90;;;;;;5035481;28;20668;-84
2022/03/23 00:28:30;;;;;;;17.25;9.32;;;10.50;99.90;;;;;;5017767;28;20168;-84
2022/03/23 00:30:56;;;;;;;14.18;8.95;;;10.50;99.90;;;;;;5035106;28;20190;-84
2022/03/23 00:33:22;;;;;;;16.83;9.23;;;10.40;99.90;;;;;;5035219;28;20225;-83
2022/03/23 00:35:49;;;;;;;26.25;10.05;;;10.30;99.90;;;;;;5035213;28;20192;-78
2022/03/23 00:38:18;;;;;;;16.75;9.98;;;10.30;99.90;;;;;;5035347;28;20275;-84
2022/03/23 00:40:45;;;;;;;13.68;9.50;;;10.40;99.90;;;;;;5034983;28;20168;-83
2022/03/23 00:43:11;;;;;;;14.95;9.70;;;10.40;99.90;;;;;;5034981;28;20236;-82
2022/03/23 00:45:38;;;;;;;17.42;9.30;;;10.60;99.90;;;;;;5034598;28;20171;-80
2022/03/23 00:48:04;;;;;;;20.42;10.75;;;10.40;99.90;;;;;;5033754;28;20723;-84
2022/03/23 00:50:30;;;;;;;15.07;10.52;;;10.20;99.90;;;;;;5034709;28;20160;-80
2022/03/23 00:52:56;;;;;;;23.30;10.60;;;10.20;99.90;;;;;;5034627;28;20708;-83
2022/03/23 00:55:21;;;;;;;21.60;10.57;;;10.10;99.90;;;;;;5034762;28;20232;-78
2022/03/23 00:57:48;;;;;;;26.40;10.55;;;10.10;99.90;;;;;;5034474;28;20191;-81
2022/03/23 01:00:16;;;;;;;19.38;10.55;;;10.20;99.90;;;;;;5034894;28;20172;-82
2022/03/23 01:02:43;;;;;;;22.70;10.52;;;10.40;99.90;;;;;;5034542;28;20562;-80
2022/03/23 01:05:11;;;;;;;26.75;11.70;;;10.20;99.90;;;;;;5034036;28;20164;-84
2022/03/23 01:07:40;;;;;;;22.77;10.75;;;10.20;99.90;;;;;;5033843;28;20198;-82
2022/03/23 01:10:09;;;;;;;17.83;9.88;;;10.00;99.90;;;;;;5016675;28;20187;-80
2022/03/23 01:12:35;;;;;;;25.30;10.68;;;10.00;99.90;;;;;;5034364;28;20208;-83
2022/03/23 01:15:01;;;;;;;27.88;10.75;;;10.00;99.90;;;;;;5034091;28;20222;-78
2022/03/23 01:17:26;;;;;;;24.27;10.48;;;10.00;99.90;;;;;;5034116;28;20184;-79
2022/03/23 01:19:52;;;;;;;22.90;10.10;;;10.10;99.90;;;;;;5034400;28;20179;-83
2022/03/23 01:22:18;;;;;;;23.70;10.88;;;10.20;99.90;;;;;;5034504;28;20330;-79
2022/03/23 01:24:44;;;;;;;18.17;9.00;;;10.40;99.90;;;;;;5043311;28;20172;-79
2022/03/23 01:27:09;;;;;;;23.98;10.63;;;10.50;99.90;;;;;;5045722;28;20295;-80
2022/03/23 01:29:35;;;;;;;21.80;9.52;;;10.50;99.90;;;;;;5033889;28;20168;-84
2022/03/23 01:32:01;;;;;;;18.38;9.50;;;10.20;99.90;;;;;;5033854;28;20242;-84
2022/03/23 01:34:27;;;;;;;15.38;9.55;;;10.00;99.90;;;;;;5033967;28;20167;-83
2022/03/23 01:36:52;;;;;;;13.10;8.55;;;9.90;99.90;;;;;;5034221;28;20203;-85
2022/03/23 01:39:18;;;;;;;13.65;9.68;;;10.00;99.90;;;;;;5033865;28;20202;-85
2022/03/23 01:41:44;;;;;;;13.52;9.73;;;10.00;99.90;;;;;;5033579;28;20175;-82
2022/03/23 01:44:20;;;;;;;19.15;11.10;;;10.20;99.90;;;;;;5033723;28;20190;-82
2022/03/23 01:47:07;;;;;;;16.30;10.02;;;10.10;99.90;;;;;;5033702;28;20636;-82
2022/03/23 01:49:34;;;;;;;19.90;9.60;;;10.20;99.90;;;;;;5016096;28;20171;-84
2022/03/23 01:52:00;;;;;;;26.42;10.57;;;10.30;99.90;;;;;;5033484;28;20239;-83
2022/03/23 01:54:26;;;;;;;20.98;11.90;;;10.30;99.90;;;;;;5033454;28;20250;-81
2022/03/23 01:56:52;;;;;;;18.48;10.10;;;10.20;99.90;;;;;;5032939;28;20210;-78
2022/03/23 01:59:18;;;;;;;18.52;10.73;;;9.90;99.90;;;;;;5032532;28;20171;-84
2022/03/23 02:01:44;;;;;;;19.42;10.30;;;9.90;99.90;;;;;;5033645;28;20531;-85
2022/03/23 02:04:10;;;;;;;20.98;11.05;;;9.90;99.90;;;;;;5033860;28;20180;-84
2022/03/23 02:06:36;;;;;;;16.13;10.60;;;9.80;99.90;;;;;;5015640;28;20192;-81
2022/03/23 02:09:02;;;;;;;13.95;10.15;;;9.60;99.90;;;;;;5033428;28;20667;-82
2022/03/23 02:11:29;;;;;;;16.15;10.60;;;9.60;99.90;;;;;;5033008;28;20167;-79
2022/03/23 02:13:54;;;;;;;17.00;9.30;;;9.60;99.90;;;;;;5033194;28;20171;-83
2022/03/23 02:16:20;;;;;;;18.40;11.23;;;9.40;99.90;;;;;;5033260;28;20187;-79
2022/03/23 02:18:46;;;;;;;24.80;11.50;;;9.40;99.90;;;;;;5032960;28;20572;-83
2022/03/23 02:21:15;;;;;;;19.40;9.98;;;9.40;99.90;;;;;;5033448;28;20168;-79
2022/03/23 02:23:40;;;;;;;14.07;10.02;;;9.40;99.90;;;;;;5033057;28;20689;-83
2022/03/23 02:26:07;;;;;;;21.20;10.82;;;9.40;99.90;;;;;;5015557;28;20214;-79
2022/03/23 02:28:33;;;;;;;17.95;9.73;;;9.30;99.90;;;;;;5033125;28;20168;-83
2022/03/23 02:30:58;;;;;;;13.88;9.65;;;9.40;99.90;;;;;;5033243;28;20255;-83
2022/03/23 02:33:24;;;;;;;14.40;9.05;;;9.20;99.90;;;;;;5017189;28;20175;-77
2022/03/23 02:35:50;;;;;;;24.40;10.00;;;9.20;99.90;;;;;;5048717;28;20202;-84
2022/03/23 02:38:16;;;;;;;17.02;9.80;;;9.30;99.90;;;;;;5050192;28;20187;-84
2022/03/23 02:40:43;;;;;;;14.57;10.00;;;9.30;99.90;;;;;;5047831;28;20181;-82
2022/03/23 02:43:09;;;;;;;27.77;10.43;;;9.10;99.90;;;;;;5045442;28;20204;-84
2022/03/23 02:45:35;;;;;;;18.30;10.18;;;9.10;99.90;;;;;;5034157;28;20526;-84
2022/03/23 02:48:03;;;;;;;12.40;9.80;;;9.30;99.90;;;;;;5034590;28;20656;-82
2022/03/23 02:50:28;;;;;;;20.25;10.75;;;9.10;99.90;;;;;;5032978;28;20645;-83
2022/03/23 03:04:08;;;;;;;18.55;10.38;;;9.20;99.90;;;;;;5032518;28;20219;-84
2022/03/23 03:06:33;;;;;;;14.93;10.10;;;8.70;99.90;;;;;;5015125;28;20211;-83
2022/03/23 03:09:00;;;;;;;16.23;10.77;;;8.50;99.90;;;;;;5032973;28;20695;-84
2022/03/23 03:11:26;;;;;;;14.63;10.15;;;8.70;99.90;;;;;;5016501;28;20171;-78
2022/03/23 03:13:52;;;;;;;24.67;9.80;;;8.60;99.90;;;;;;5036234;28;20163;-78
2022/03/23 03:16:18;;;;;;;14.30;10.00;;;8.60;99.90;;;;;;5036303;28;20195;-81
2022/03/23 03:18:44;;;;;;;17.92;11.05;;;8.70;99.90;;;;;;5036268;28;20159;-83
2022/03/23 03:21:11;;;;;;;20.02;11.05;;;8.70;99.90;;;;;;5036099;28;20251;-84
2022/03/23 03:23:38;;;;;;;19.70;11.07;;;9.10;99.90;;;;;;5036450;28;20203;-84
2022/03/23 03:26:05;;;;;;;17.75;9.73;;;8.80;99.90;;;;;;5036473;28;20664;-83
2022/03/23 03:28:36;;;;;;;18.42;11.43;;;8.60;99.90;;;;;;5036417;28;20641;-83
2022/03/23 03:31:03;;;;;;;23.15;11.23;;;8.60;99.90;;;;;;5036246;28;20187;-78
2022/03/23 03:33:30;;;;;;;17.17;10.30;;;8.60;99.90;;;;;;5036254;28;20647;-84
2022/03/23 03:35:55;;;;;;;27.02;11.27;;;8.60;99.90;;;;;;5036375;28;20563;-84
2022/03/23 03:38:21;;;;;;;19.30;10.13;;;8.50;99.90;;;;;;5035637;28;20191;-81
2022/03/23 03:40:47;;;;;;;19.02;10.77;;;8.50;99.90;;;;;;5035784;28;20267;-80
2022/03/23 03:43:12;;;;;;;22.15;11.95;;;8.50;99.90;;;;;;5036041;28;20211;-78
2022/03/23 03:45:38;;;;;;;21.30;11.05;;;8.60;99.90;;;;;;5018371;28;20697;-84
2022/03/23 03:48:04;;;;;;;22.80;11.10;;;8.60;99.90;;;;;;5035617;28;20245;-82
2022/03/23 03:50:30;;;;;;;23.23;11.27;;;8.80;99.90;;;;;;5018339;28;20159;-82
2022/03/23 03:52:55;;;;;;;27.23;11.85;;;8.70;99.90;;;;;;5035679;28;20179;-83
2022/03/23 03:55:21;;;;;;;21.42;12.23;;;8.80;99.90;;;;;;5036206;28;20168;-77
2022/03/23 03:57:47;;;;;;;32.83;12.60;;;8.90;99.90;;;;;;5035664;28;20192;-81
2022/03/23 04:00:13;;;;;;;30.15;14.00;;;8.80;99.90;;;;;;5035465;28;20527;-85
2022/03/23 04:02:39;;;;;;;26.83;12.85;;;8.50;99.90;;;;;;5035215;28;20239;-85
2022/03/23 04:05:05;;;;;;;26.73;12.45;;;8.50;99.90;;;;;;5035765;28;20164;-82
2022/03/23 04:07:33;;;;;;;18.00;11.98;;;8.50;99.90;;;;;;5035403;28;20194;-79
2022/03/23 04:10:06;;;;;;;50.00;13.35;;;8.30;99.90;;;;;;5035788;28;20191;-79
2022/03/23 04:12:31;;;;;;;24.67;12.82;;;8.40;99.90;;;;;;5035845;28;20287;-81
2022/03/23 04:14:57;;;;;;;31.55;11.95;;;8.30;99.90;;;;;;5035512;28;20255;-79
2022/03/23 04:17:22;;;;;;;24.85;11.85;;;8.30;99.90;;;;;;5035640;28;20192;-85
2022/03/23 04:19:48;;;;;;;22.83;12.93;;;8.30;99.90;;;;;;5035614;28;20660;-82
2022/03/23 04:22:13;;;;;;;14.48;10.70;;;8.30;99.90;;;;;;5034608;28;20207;-85
2022/03/23 04:24:39;;;;;;;21.38;11.15;;;8.30;99.90;;;;;;5035505;28;20545;-85
2022/03/23 04:27:05;;;;;;;19.15;12.73;;;8.30;99.90;;;;;;5035090;28;20215;-84
2022/03/23 04:29:31;;;;;;;20.50;12.10;;;8.10;99.90;;;;;;5035173;28;20651;-85
2022/03/23 04:31:57;;;;;;;18.27;11.63;;;8.00;99.90;;;;;;5017388;28;20176;-81
2022/03/23 04:34:22;;;;;;;25.00;12.50;;;7.90;99.90;;;;;;5035150;28;20255;-77
2022/03/23 04:36:48;;;;;;;22.95;13.18;;;8.00;99.90;;;;;;5035648;28;20241;-83
2022/03/23 04:39:15;;;;;;;27.23;12.48;;;8.20;99.90;;;;;;5035268;28;20237;-78
2022/03/23 04:41:40;;;;;;;15.75;11.27;;;8.10;99.90;;;;;;5034871;28;20589;-82
2022/03/23 04:44:06;;;;;;;18.50;11.88;;;8.00;99.90;;;;;;5035087;28;20235;-84
2022/03/23 04:46:32;;;;;;;15.88;10.50;;;7.80;99.90;;;;;;5035030;28;20200;-83
2022/03/23 04:48:57;;;;;;;35.90;12.50;;;7.90;99.90;;;;;;5034864;28;20254;-83
2022/03/23 04:51:23;;;;;;;23.90;11.77;;;7.90;99.90;;;;;;5034992;28;20172;-84
2022/03/23 04:53:49;;;;;;;18.30;12.02;;;7.90;99.90;;;;;;5035089;28;20637;-84
2022/03/23 04:56:15;;;;;;;16.88;11.50;;;7.80;99.90;;;;;;5034530;28;20168;-82
2022/03/23 04:58:42;;;;;;;19.92;12.75;;;7.80;99.90;;;;;;5034502;28;20172;-83
2022/03/23 05:01:08;;;;;;;20.98;13.02;;;7.90;99.90;;;;;;5034129;28;20160;-80
2022/03/23 05:03:34;;;;;;;22.25;13.57;;;7.80;99.90;;;;;;5033835;28;20542;-83
2022/03/23 05:06:00;;;;;;;24.13;12.82;;;7.70;99.90;;;;;;5034544;28;20222;-83
2022/03/23 05:08:26;;;;;;;19.10;11.68;;;7.70;99.90;;;;;;5034551;28;20263;-84
2022/03/23 05:10:52;;;;;;;17.60;11.07;;;7.70;99.90;;;;;;5034352;28;20602;-80
2022/03/23 05:13:17;;;;;;;14.95;11.98;;;7.90;99.90;;;;;;5034123;28;20250;-85
2022/03/23 05:15:43;;;;;;;17.17;12.68;;;7.80;99.90;;;;;;5016392;28;20258;-85
2022/03/23 05:18:09;;;;;;;22.75;12.50;;;7.90;99.90;;;;;;5034087;28;20219;-83
2022/03/23 05:20:35;;;;;;;24.20;11.63;;;7.80;99.90;;;;;;5034103;28;20168;-84
2022/03/23 05:23:00;;;;;;;22.23;12.18;;;7.90;99.90;;;;;;5034322;28;20218;-83
2022/03/23 05:25:26;;;;;;;18.92;12.23;;;8.00;99.90;;;;;;5033764;28;20218;-79
2022/03/23 05:27:52;;;;;;;27.60;11.88;;;7.80;99.90;;;;;;5033330;28;20524;-85
2022/03/23 05:30:18;;;;;;;22.60;11.60;;;7.90;99.90;;;;;;5033697;28;20184;-85
2022/03/23 05:32:44;;;;;;;20.95;10.88;;;7.90;99.90;;;;;;5033500;28;20176;-83
2022/03/23 05:35:11;;;;;;;23.80;12.02;;;7.90;99.90;;;;;;5033807;28;20211;-84
2022/03/23 05:37:37;;;;;;;25.02;12.55;;;7.80;99.90;;;;;;5033522;28;20195;-81
2022/03/23 05:40:03;;;;;;;24.50;12.73;;;7.80;99.90;;;;;;5033631;28;20171;-78
2022/03/23 05:42:29;;;;;;;25.92;13.20;;;8.00;99.90;;;;;;5033712;28;20245;-79
2022/03/23 05:44:55;;;;;;;25.10;13.35;;;8.10;99.90;;;;;;5033449;28;20250;-80
2022/03/23 05:47:21;;;;;;;24.75;14.13;;;8.10;99.90;;;;;;5033761;28;20188;-85
2022/03/23 05:49:46;;;;;;;25.10;11.73;;;8.00;99.90;;;;;;5033372;28;20632;-79
2022/03/23 05:52:12;;;;;;;23.27;12.77;;;8.00;99.90;;;;;;5033495;28;20179;-84
2022/03/23 05:54:38;;;;;;;23.73;11.98;;;8.00;99.90;;;;;;5033395;28;20528;-79
2022/03/23 05:57:04;;;;;;;23.42;12.65;;;7.80;99.90;;;;;;5033286;28;20199;-79
2022/03/23 05:59:30;;;;;;;23.02;13.13;;;7.80;99.90;;;;;;5033089;28;20618;-78
2022/03/23 06:01:58;;;;;;;24.02;13.02;;;7.80;99.90;;;;;;5032890;28;20696;-78
2022/03/23 06:04:23;;;;;;;23.70;13.70;;;7.80;99.90;;;;;;5032956;28;20968;-78
2022/03/23 06:06:49;;;;;;;30.70;13.77;;;8.00;99.90;;;;;;5032955;28;20198;-83
2022/03/23 06:09:14;;;;;;;19.33;12.40;;;8.20;99.90;;;;;;5033142;28;20170;-79
2022/03/23 06:11:40;;;;;;;21.42;13.68;;;8.40;99.90;;;;;;5033479;28;20577;-78
2022/03/23 06:14:06;;;;;;;29.63;14.15;;;8.20;99.90;;;;;;5032936;28;20652;-78
2022/03/23 06:16:32;;;;;;;19.02;13.25;;;8.30;99.90;;;;;;5032547;28;20791;-79
2022/03/23 06:18:59;;;;;;;25.67;13.35;;;8.50;99.90;;;;;;5032994;28;20193;-80
2022/03/23 06:21:24;;;;;;;28.13;12.55;;;8.20;99.90;;;;;;5032473;28;20167;-78
2022/03/23 06:23:50;;;;;;;27.27;14.32;;;8.00;99.90;;;;;;5032486;28;20532;-84
2022/03/23 06:26:16;;;;;;;31.75;15.57;;;7.90;99.90;;;;;;5032720;28;20175;-84
2022/03/23 06:28:42;;;;;;;41.60;15.73;;;8.10;99.90;;;;;;5033270;28;20163;-79
2022/03/23 06:31:08;;;;;;;126.40;20.52;;;8.30;99.90;;;;;;5033144;28;20680;-85
2022/03/23 06:33:33;;;;;;;66.95;17.17;;;8.50;99.90;;;;;;5032886;28;20171;-84
2022/03/23 06:35:59;;;;;;;55.92;16.42;;;8.50;99.90;;;;;;5033369;28;20164;-83
2022/03/23 06:38:24;;;;;;;63.15;16.45;;;8.50;99.90;;;;;;5034189;28;20612;-78
2022/03/23 06:40:50;;;;;;;26.23;14.02;;;8.60;99.90;;;;;;5032562;28;20176;-78
2022/03/23 06:43:16;;;;;;;33.75;13.57;;;8.90;99.90;;;;;;5032752;28;20208;-84
2022/03/23 06:45:42;;;;;;;54.38;15.43;;;9.00;99.90;;;;;;5032742;28;20176;-84
2022/03/23 06:48:08;;;;;;;29.92;14.57;;;9.00;99.90;;;;;;5032814;28;20183;-83
2022/03/23 06:50:34;;;;;;;65.43;15.40;;;9.10;99.90;;;;;;5033611;28;20671;-82
2022/03/23 06:53:00;;;;;;;40.72;16.00;;;9.40;99.90;;;;;;5033852;28;20167;-83
2022/03/23 06:55:26;;;;;;;45.92;16.77;;;9.60;99.90;;;;;;5033858;28;20687;-79
2022/03/23 06:57:52;;;;;;;37.47;15.43;;;9.80;99.90;;;;;;5044009;28;20195;-85
2022/03/23 07:00:18;;;;;;;34.35;17.42;;;9.80;99.90;;;;;;5050156;28;20210;-79
2022/03/23 07:02:48;;;;;;;38.78;16.65;;;9.80;99.90;;;;;;5048009;28;20257;-83
2022/03/23 07:05:15;;;;;;;32.08;16.45;;;10.00;99.90;;;;;;5046164;28;20176;-83
2022/03/23 07:10:27;;;;;;;30.95;15.80;;;10.30;99.90;;;;;;5034831;28;20221;-80
2022/03/23 07:12:53;;;;;;;31.00;16.90;;;10.40;99.90;;;;;;5032687;28;20629;-83
2022/03/23 07:15:19;;;;;;;37.65;16.65;;;10.50;99.90;;;;;;5032520;28;20230;-79
2022/03/23 07:17:44;;;;;;;35.83;17.63;;;10.50;99.90;;;;;;5032863;28;20196;-80
2022/03/23 07:20:10;;;;;;;35.53;16.02;;;10.40;99.90;;;;;;5032969;28;20168;-88
2022/03/23 07:22:36;;;;;;;29.33;16.27;;;10.50;99.90;;;;;;5032838;28;20188;-81
2022/03/23 07:25:02;;;;;;;39.70;16.50;;;10.60;99.90;;;;;;5032333;28;20182;-79
2022/03/23 07:27:28;;;;;;;40.40;18.58;;;10.70;99.90;;;;;;5032341;28;20179;-85
2022/03/23 07:29:53;;;;;;;39.10;17.33;;;10.90;99.90;;;;;;5032290;28;20663;-79
2022/03/23 07:32:20;;;;;;;36.17;18.00;;;11.00;99.90;;;;;;5032905;28;20227;-79
2022/03/23 07:34:46;;;;;;;30.08;17.98;;;11.10;99.90;;;;;;5032620;28;20172;-81
2022/03/23 07:37:12;;;;;;;38.15;17.23;;;11.20;99.90;;;;;;5031656;28;20184;-79
2022/03/23 07:39:37;;;;;;;36.20;16.63;;;11.10;99.90;;;;;;5032385;28;20171;-82
2022/03/23 07:42:03;;;;;;;27.30;15.77;;;11.10;99.90;;;;;;5032095;28;20156;-83
2022/03/23 07:44:32;;;;;;;29.40;16.63;;;11.30;99.90;;;;;;5015061;28;20537;-79
2022/03/23 07:46:58;;;;;;;33.35;17.48;;;11.40;99.90;;;;;;5035595;28;20615;-79
2022/03/23 07:49:24;;;;;;;36.75;17.73;;;11.40;99.90;;;;;;5045485;28;20156;-79
2022/03/23 07:51:49;;;;;;;38.33;16.75;;;11.40;99.90;;;;;;5054852;28;20160;-78
2022/03/23 07:54:15;;;;;;;31.15;19.02;;;11.60;99.90;;;;;;5043854;28;20206;-78
2022/03/23 07:56:41;;;;;;;40.25;19.50;;;11.70;99.90;;;;;;5032166;28;20726;-81
2022/03/23 07:59:06;;;;;;;37.08;19.55;;;11.90;99.90;;;;;;5034529;28;20160;-83
2022/03/23 08:01:33;;;;;;;45.28;18.48;;;12.00;99.90;;;;;;5036355;28;20242;-82
2022/03/23 08:03:59;;;;;;;30.92;18.55;;;12.10;99.90;;;;;;5035867;28;20200;-85
2022/03/23 08:06:26;;;;;;;46.88;17.83;;;12.40;99.90;;;;;;5036004;28;20329;-87
2022/03/23 08:08:52;;;;;;;32.58;17.75;;;12.50;99.90;;;;;;5035836;28;20616;-79
2022/03/23 08:11:18;;;;;;;43.88;18.80;;;12.70;99.90;;;;;;5036251;28;20183;-80
2022/03/23 08:13:43;;;;;;;32.85;19.55;;;12.80;99.90;;;;;;5035573;28;20176;-79
2022/03/23 08:16:09;;;;;;;41.50;19.42;;;13.00;99.90;;;;;;5035431;28;20164;-85
2022/03/23 08:18:36;;;;;;;39.92;19.45;;;13.10;99.90;;;;;;5035197;28;20171;-85
2022/03/23 08:21:01;;;;;;;44.78;18.00;;;13.30;99.90;;;;;;5017411;28;20314;-79
2022/03/23 08:23:29;;;;;;;40.40;19.30;;;13.50;99.90;;;;;;5035247;28;20298;-84
2022/03/23 08:25:55;;;;;;;38.25;19.70;;;13.70;99.90;;;;;;5035313;28;20175;-81
2022/03/23 08:28:21;;;;;;;36.47;18.20;;;13.90;99.90;;;;;;5034971;28;20192;-80
2022/03/23 08:30:46;;;;;;;47.25;20.70;;;13.90;99.90;;;;;;5037449;28;20202;-86
2022/03/23 08:33:12;;;;;;;41.58;19.48;;;14.00;99.90;;;;;;5047156;28;20192;-85
2022/03/23 08:35:39;;;;;;;42.72;20.67;;;14.20;99.90;;;;;;5035500;28;20633;-82
2022/03/23 08:38:06;;;;;;;43.72;18.88;;;14.30;99.90;;;;;;5035405;28;20203;-84
2022/03/23 08:40:33;;;;;;;38.20;19.25;;;14.30;99.90;;;;;;5054083;28;20193;-82
2022/03/23 08:42:59;;;;;;;46.35;20.77;;;14.50;99.90;;;;;;5054443;28;20297;-84
2022/03/23 08:45:26;;;;;;;42.45;19.20;;;14.70;99.90;;;;;;5054623;28;20187;-80
2022/03/23 08:47:52;;;;;;;40.83;19.92;;;14.70;99.90;;;;;;5054273;28;20236;-84
2022/03/23 08:50:18;;;;;;;42.15;19.75;;;14.80;99.90;;;;;;5053282;28;20267;-85
2022/03/23 08:52:44;;;;;;;50.20;20.10;;;14.90;99.90;;;;;;5053346;28;20394;-83
2022/03/23 08:55:19;;;;;;;42.30;20.13;;;15.00;99.90;;;;;;5054767;28;20176;-80
2022/03/23 08:57:46;;;;;;;49.88;19.65;;;15.10;99.90;;;;;;5054932;28;20187;-80
2022/03/23 09:00:12;;;;;;;45.45;20.63;;;15.10;99.90;;;;;;5050889;28;20190;-79
2022/03/23 09:02:38;;;;;;;46.38;22.00;;;15.30;99.90;;;;;;5043072;28;20282;-82
2022/03/23 09:05:09;;;;;;;40.92;19.83;;;15.40;99.90;;;;;;5053956;28;20736;-85
2022/03/23 09:07:35;;;;;;;42.65;19.80;;;15.50;99.90;;;;;;5052877;28;20191;-79
2022/03/23 09:10:01;;;;;;;38.60;20.50;;;15.60;99.90;;;;;;5034798;28;20197;-78
2022/03/23 09:12:26;;;;;;;44.05;20.85;;;15.60;99.90;;;;;;5053842;28;20170;-79
2022/03/23 09:14:52;;;;;;;52.67;22.08;;;15.60;99.90;;;;;;5054195;28;20159;-78
2022/03/23 09:17:18;;;;;;;52.67;20.55;;;15.80;99.90;;;;;;5053364;28;20293;-83
2022/03/23 09:19:43;;;;;;;52.40;21.05;;;15.90;99.90;;;;;;5034788;28;20241;-82
2022/03/23 09:22:09;;;;;;;40.45;18.65;;;15.80;99.90;;;;;;5015935;28;20168;-81
2022/03/23 09:24:34;;;;;;;54.50;21.20;;;15.90;99.90;;;;;;5034258;28;20171;-80
2022/03/23 09:27:00;;;;;;;47.83;21.10;;;15.90;99.90;;;;;;5048327;28;20191;-87
2022/03/23 09:29:26;;;;;;;59.40;22.05;;;16.10;99.90;;;;;;5054163;28;20177;-87
2022/03/23 09:31:51;;;;;;;51.53;21.00;;;16.30;99.90;;;;;;5036534;28;20171;-83
2022/03/23 09:34:17;;;;;;;46.97;20.58;;;16.30;99.90;;;;;;5039383;28;20182;-84
2022/03/23 09:39:27;;;;;;;48.53;22.20;;;16.50;99.90;;;;;;5035467;28;20202;-83
2022/03/23 09:41:56;;;;;;;54.10;20.73;;;16.60;99.90;;;;;;5053584;28;20171;-83
2022/03/23 09:44:25;;;;;;;49.88;23.20;;;16.80;99.90;;;;;;5048102;28;20213;-81
2022/03/23 09:46:51;;;;;;;56.72;20.80;;;16.80;99.70;;;;;;5035729;28;20268;-80
2022/03/23 09:49:17;;;;;;;48.22;20.70;;;16.70;99.90;;;;;;5053698;28;20627;-78
2022/03/23 09:51:43;;;;;;;52.13;21.08;;;16.80;99.90;;;;;;5054072;28;20669;-84
2022/03/23 09:54:09;;;;;;;47.40;21.45;;;16.90;99.20;;;;;;5052014;28;20178;-86
2022/03/23 09:56:36;;;;;;;49.67;21.83;;;17.00;99.90;;;;;;5046620;28;20556;-80
2022/03/23 09:59:04;;;;;;;45.38;19.95;;;17.20;99.90;;;;;;5032873;28;20171;-82
2022/03/23 10:01:50;;;;;;;48.72;20.95;;;17.00;99.80;;;;;;5053742;28;20254;-85
2022/03/23 10:04:41;;;;;;;44.50;21.77;;;17.00;99.90;;;;;;5053307;28;20210;-86
2022/03/23 10:07:37;;;;;;;41.65;20.70;;;17.00;99.90;;;;;;5053532;28;20183;-82
2022/03/23 10:10:42;;;;;;;58.83;19.77;;;16.90;99.70;;;;;;5053472;28;20194;-80
2022/03/23 10:13:33;;;;;;;37.20;19.58;;;16.80;99.50;;;;;;5053822;28;20530;-85
2022/03/23 10:16:36;;;;;;;40.90;18.17;;;16.90;99.10;;;;;;5053428;28;20258;-85
2022/03/23 10:19:02;;;;;;;38.47;19.00;;;17.00;96.20;;;;;;5038627;28;20551;-82
2022/03/23 10:21:35;;;;;;;36.92;18.83;;;17.00;96.40;;;;;;5032827;28;20166;-85
2022/03/23 10:24:02;;;;;;;37.50;18.95;;;17.00;96.30;;;;;;5044020;28;20265;-83
2022/03/23 10:26:30;;;;;;;41.45;19.15;;;17.00;96.50;;;;;;5052938;28;20237;-79
2022/03/23 10:28:57;;;;;;;34.72;18.73;;;17.00;96.20;;;;;;5053040;28;20171;-85
2022/03/23 10:31:25;;;;;;;32.67;17.73;;;17.10;96.00;;;;;;5053141;28;20179;-80
2022/03/23 10:34:08;;;;;;;32.42;18.08;;;17.20;96.60;;;;;;5042917;28;20221;-84
2022/03/23 10:36:40;;;;;;;49.08;19.77;;;17.30;95.90;;;;;;5033007;28;20195;-87
2022/03/23 10:39:10;;;;;;;36.53;20.00;;;17.40;95.60;;;;;;5033353;28;20603;-86
2022/03/23 10:41:36;;;;;;;44.30;21.48;;;17.40;97.20;;;;;;5033251;28;20177;-80
2022/03/23 10:44:02;;;;;;;35.45;20.35;;;17.40;96.80;;;;;;5031739;28;20338;-80
2022/03/23 10:46:28;;;;;;;44.30;21.33;;;17.50;96.80;;;;;;5040027;28;20278;-86
2022/03/23 10:49:03;;;;;;;44.25;22.17;;;17.40;98.00;;;;;;5052677;28;20167;-82
2022/03/23 10:51:32;;;;;;;40.70;20.08;;;17.40;97.50;;;;;;5051682;28;20518;-84
2022/03/23 10:53:58;;;;;;;50.55;23.27;;;17.70;97.30;;;;;;5051603;28;20174;-83
2022/03/23 10:56:32;;;;;;;34.50;19.35;;;17.80;97.20;;;;;;5052296;28;20183;-79
2022/03/23 10:59:26;;;;;;;44.85;20.48;;;17.80;96.10;;;;;;5026180;28;20179;-78
2022/03/23 11:01:57;;;;;;;40.83;19.05;;;18.00;95.30;;;;;;5025427;28;20274;-77
2022/03/23 11:04:24;;;;;;;51.28;20.75;;;17.80;94.80;;;;;;5028784;28;20203;-78
2022/03/23 11:06:51;;;;;;;36.70;17.30;;;17.80;94.60;;;;;;5036319;28;20191;-79
2022/03/23 11:18:17;;;;;;;35.55;18.38;;;17.90;95.30;;;;;;5051258;28;20622;-78
2022/03/23 11:20:46;;;;;;;39.10;18.55;;;18.00;95.10;;;;;;5052665;28;20186;-81
2022/03/23 11:23:19;;;;;;;38.35;18.90;;;18.00;94.70;;;;;;5051882;28;20236;-79
2022/03/23 11:25:45;;;;;;;33.47;18.30;;;18.10;93.90;;;;;;5052387;28;20181;-79
2022/03/23 11:28:15;;;;;;;40.67;19.17;;;18.10;93.50;;;;;;5052742;28;20205;-78
2022/03/23 11:30:43;;;;;;;42.55;20.50;;;18.10;94.60;;;;;;5052731;28;20352;-80
2022/03/23 11:33:16;;;;;;;40.97;17.70;;;18.20;94.30;;;;;;5054953;28;20221;-77
2022/03/23 11:35:49;;;;;;;39.47;19.58;;;18.30;93.80;;;;;;5070054;28;20156;-83
2022/03/23 11:38:26;;;;;;;34.65;19.00;;;18.10;93.20;;;;;;5057449;28;20187;-84
2022/03/23 11:40:52;;;;;;;31.77;19.25;;;18.00;93.30;;;;;;5058768;28;20201;-82
2022/03/23 11:43:22;;;;;;;43.67;19.38;;;18.10;93.50;;;;;;5050706;28;20610;-83
2022/03/23 11:45:50;;;;;;;44.65;19.08;;;18.10;93.80;;;;;;5040151;28;20167;-83
2022/03/23 11:48:46;;;;;;;43.40;18.90;;;17.80;94.40;;;;;;5058796;28;20190;-83
2022/03/23 11:51:38;;;;;;;36.08;20.10;;;18.00;93.40;;;;;;5055954;28;20164;-83
2022/03/23 11:54:10;;;;;;;35.03;18.60;;;18.10;94.00;;;;;;5024319;28;20187;-82
2022/03/23 11:56:49;;;;;;;44.72;18.95;;;18.10;93.80;;;;;;5037175;28;20206;-83
2022/03/23 11:59:20;;;;;;;38.78;17.65;;;18.10;93.30;;;;;;5037294;28;20262;-83
2022/03/23 12:01:46;;;;;;;32.33;17.80;;;18.20;92.90;;;;;;5054803;28;20859;-84
2022/03/23 12:04:17;;;;;;;35.50;18.67;;;18.30;92.80;;;;;;5036797;28;20297;-84
2022/03/23 12:06:44;;;;;;;35.97;16.92;;;18.30;92.60;;;;;;5054853;28;20190;-84
2022/03/23 12:09:35;;;;;;;33.28;18.50;;;18.30;92.50;;;;;;5036760;28;20183;-83
2022/03/23 12:12:10;;;;;;;34.55;16.70;;;18.30;92.40;;;;;;5036731;28;20179;-83
2022/03/23 12:14:37;;;;;;;25.13;15.02;;;18.20;92.20;;;;;;5054649;28;20202;-83
2022/03/23 12:17:30;;;;;;;33.40;14.80;;;18.30;91.50;;;;;;5037033;28;20336;-82
2022/03/23 12:19:57;;;;;;;20.67;11.63;;;18.40;91.00;;;;;;5051467;28;20587;-82
2022/03/23 12:22:31;;;;;;;16.95;9.65;;;18.40;90.50;;;;;;5054366;28;20253;-81
2022/03/23 12:25:06;;;;;;;18.88;11.85;;;18.40;89.80;;;;;;5054635;28;20659;-83
2022/03/23 12:27:46;;;;;;;21.38;12.00;;;18.50;90.10;;;;;;5053672;28;20210;-82
2022/03/23 12:30:43;;;;;;;22.63;11.40;;;18.50;90.20;;;;;;5054038;28;20182;-82
2022/03/23 12:33:12;;;;;;;19.42;10.52;;;18.40;89.00;;;;;;5029575;28;20176;-81
2022/03/23 12:35:39;;;;;;;17.17;8.02;;;18.30;88.70;;;;;;5033201;28;20168;-83
2022/03/23 12:38:22;;;;;;;21.88;8.95;;;18.30;86.40;;;;;;5032564;28;20202;-84
2022/03/23 12:40:48;;;;;;;16.15;9.18;;;18.30;87.80;;;;;;5033696;28;20171;-82
2022/03/23 12:43:35;;;;;;;15.52;9.05;;;18.30;86.50;;;;;;5032599;28;20286;-80
2022/03/23 12:46:01;;;;;;;19.15;7.72;;;18.40;85.90;;;;;;5038688;28;20195;-80
2022/03/23 12:59:37;;;;;;;18.02;9.10;;;18.40;86.20;;;;;;5034868;28;20290;-84
2022/03/23 13:02:27;;;;;;;13.20;8.82;;;18.50;87.00;;;;;;5016961;28;20261;-85
2022/03/23 13:04:55;;;;;;;22.83;9.38;;;18.50;86.70;;;;;;5024661;28;20203;-82
2022/03/23 13:07:37;;;;;;;14.75;9.40;;;18.50;85.30;;;;;;5034753;28;20679;-86
2022/03/23 13:10:12;;;;;;;19.00;9.27;;;18.50;85.50;;;;;;5034419;28;20202;-86
2022/03/23 13:12:40;;;;;;;14.52;8.77;;;18.40;85.80;;;;;;5034470;28;20163;-80
2022/03/23 13:15:18;;;;;;;20.17;9.50;;;18.40;86.10;;;;;;5034383;28;20164;-82